Krain, Washington
Current Conditions -  °F | °C
As of 3:53 PM on Saturday 25 Oct 2014 (Local Time) from KRNT Reporting Station
Light Rain Light Rain  
Wind Chill: 57°   Ceiling: 6500
Heat Index: 57°   Visibility: 6mi
Dew Point: 56°   Wind: 0mph
Humidity: 96%   Direction: NA
Pressure: 29.29"   Gusts: NA
Location:  47.1782°N, 121.641°W
Report Text: KRNT 252253Z 00000KT 6SM -RA BR OVC065 14/13 A2929 RMK AO2 SLP923 P0004 T01390133
Loading
Personal Weather Stations






























Interactive Weather Map
Tropical Storm Tracking
New forecast layout! Learn more

10-Day Weather Forecast

Advertisements
Track Severe Weather on mobile